Edith Kirk — 2DST9 — position and weather

sailwx.info

Track history (hours):
 
Tides and Currents Weather Stations Pressure Air Temp Water Temp Dewpoint Dewpoint Depression Visibility Wind Speed Wind Dir Waves Ship Positions

Edith Kirk

Last reported at 2015-Apr-15 05:18 UTC. Time now 2015-May-22 08:36 UTC.
Position N 26°12' W 079°43'.
Warning: this ship's position is 37 days out of date.

Length 183 m; draft 7.3 m.

Type: Tanker. MMSI: 235081745.

Date/timePositionNaut miles runAvg speedWind from/ knotsBaromVisibWave heightAir tempDewpointWater temp
2015-Apr-15 05:18N 26°12' W 079°43'1013.6
2015-Apr-15 04:33N 26°09' W 079°54'1010.4
2015-Apr-15 03:33N 26°05' W 080°05'2 1.8
2015-Apr-15 02:27N 26°06' W 080°07'0 0.0
2015-Apr-12 22:34N 26°06' W 080°07'4 3.6
2015-Apr-12 21:33N 26°07' W 080°04'0 0.5
2015-Apr-12 20:34N 26°08' W 080°04'0 0.1
2015-Apr-12 19:31N 26°08' W 080°04'0 0.0
2015-Apr-12 18:31N 26°08' W 080°04'0 0.0
2015-Apr-12 17:31N 26°08' W 080°04'0 0.0
2015-Apr-12 16:28N 26°08' W 080°04'0 0.0
2015-Apr-12 15:31N 26°08' W 080°04'0 0.1
2015-Apr-12 14:31N 26°08' W 080°04'0 0.0
2015-Apr-12 13:31N 26°08' W 080°04'0 0.0
2015-Apr-12 12:31N 26°08' W 080°04'0 0.1
2015-Apr-12 11:25N 26°08' W 080°04'0 0.1
2015-Apr-12 10:22N 26°08' W 080°04'0 0.1
2015-Apr-12 09:25N 26°08' W 080°04'0 0.0
2015-Apr-12 08:25N 26°08' W 080°04'0 0.0
2015-Apr-12 07:25N 26°08' W 080°04'0 0.0
2015-Apr-12 06:28N 26°08' W 080°04'0 0.0
2015-Apr-12 05:28N 26°08' W 080°04'0 0.0
2015-Apr-12 04:28N 26°08' W 080°04'0 0.0
2015-Apr-12 03:31N 26°08' W 080°04'0 0.0
2015-Apr-12 02:31N 26°08' W 080°04'0 0.1
2015-Apr-12 01:28N 26°08' W 080°04'0 0.0
2015-Apr-12 00:31N 26°08' W 080°04'0 0.1
2015-Apr-11 23:31N 26°08' W 080°04'0 0.0
2015-Apr-11 22:31N 26°08' W 080°04'0 0.0
2015-Apr-11 21:31N 26°08' W 080°04'0 0.0
2015-Apr-11 20:31N 26°08' W 080°04'0 0.0
2015-Apr-11 19:25N 26°08' W 080°04'0 0.0
2015-Apr-11 18:25N 26°08' W 080°04'0 0.0
2015-Apr-11 17:25N 26°08' W 080°04'0 0.0
2015-Apr-11 16:25N 26°08' W 080°04'0 0.0
2015-Apr-11 15:25N 26°08' W 080°04'0 0.0
2015-Apr-11 14:28N 26°08' W 080°04'0 0.0
2015-Apr-11 13:28N 26°08' W 080°04'0 0.0
2015-Apr-11 12:31N 26°08' W 080°04'0 0.0
2015-Apr-11 11:31N 26°08' W 080°04'0 0.0
2015-Apr-11 10:31N 26°08' W 080°04'0 0.0
2015-Apr-11 09:31N 26°08' W 080°04'0 0.0
2015-Apr-11 08:31N 26°08' W 080°04'0 0.0
2015-Apr-11 07:31N 26°08' W 080°04'0 0.0
2015-Apr-11 06:31N 26°08' W 080°04'0 0.0
2015-Apr-11 05:22N 26°08' W 080°04'0 0.0
2015-Apr-11 04:22N 26°08' W 080°04'0 0.0
2015-Apr-11 03:22N 26°08' W 080°04'0 0.0
2015-Apr-11 02:25N 26°08' W 080°04'0 0.0
2015-Apr-11 01:25N 26°08' W 080°04'0 0.0
2015-Apr-11 00:28N 26°08' W 080°04'0 0.0
2015-Apr-10 23:33N 26°08' W 080°04'0 0.0
2015-Apr-10 22:33N 26°08' W 080°04'0 0.0
2015-Apr-10 21:33N 26°08' W 080°04'1 1.0
2015-Apr-10 20:33N 26°08' W 080°03'8 7.6
2015-Apr-10 19:33N 26°12' W 079°56'9 9.1
2015-Apr-10 18:33N 26°19' W 079°50'9 9.0
2015-Apr-10 17:33N 26°27' W 079°45'10 9.5
2015-Apr-10 16:33N 26°36' W 079°40'  
Track history (hours):
 
Tides and Currents Weather Stations Pressure Air Temp Water Temp Dewpoint Dewpoint Depression Visibility Wind Speed Wind Dir Waves Ship Positions

Edith Kirk

Last reported at 2015-Apr-15 05:18 UTC. Time now 2015-May-22 08:36 UTC.
Position N 26°12' W 079°43'.
Warning: this ship's position is 37 days out of date.

Length 183 m; draft 7.3 m.

Type: Tanker. MMSI: 235081745.

Date/timePositionNaut miles runAvg speedWind from/ knotsBaromVisibWave heightAir tempDewpointWater temp
2015-Apr-15 05:18N 26°12' W 079°43'1013.6
2015-Apr-15 04:33N 26°09' W 079°54'1010.4
2015-Apr-15 03:33N 26°05' W 080°05'2 1.8
2015-Apr-15 02:27N 26°06' W 080°07'0 0.0
2015-Apr-12 22:34N 26°06' W 080°07'4 3.6
2015-Apr-12 21:33N 26°07' W 080°04'0 0.5
2015-Apr-12 20:34N 26°08' W 080°04'0 0.1
2015-Apr-12 19:31N 26°08' W 080°04'0 0.0
2015-Apr-12 18:31N 26°08' W 080°04'0 0.0
2015-Apr-12 17:31N 26°08' W 080°04'0 0.0
2015-Apr-12 16:28N 26°08' W 080°04'0 0.0
2015-Apr-12 15:31N 26°08' W 080°04'0 0.1
2015-Apr-12 14:31N 26°08' W 080°04'0 0.0
2015-Apr-12 13:31N 26°08' W 080°04'0 0.0
2015-Apr-12 12:31N 26°08' W 080°04'0 0.1
2015-Apr-12 11:25N 26°08' W 080°04'0 0.1
2015-Apr-12 10:22N 26°08' W 080°04'0 0.1
2015-Apr-12 09:25N 26°08' W 080°04'0 0.0
2015-Apr-12 08:25N 26°08' W 080°04'0 0.0
2015-Apr-12 07:25N 26°08' W 080°04'0 0.0
2015-Apr-12 06:28N 26°08' W 080°04'0 0.0
2015-Apr-12 05:28N 26°08' W 080°04'0 0.0
2015-Apr-12 04:28N 26°08' W 080°04'0 0.0
2015-Apr-12 03:31N 26°08' W 080°04'0 0.0
2015-Apr-12 02:31N 26°08' W 080°04'0 0.1
2015-Apr-12 01:28N 26°08' W 080°04'0 0.0
2015-Apr-12 00:31N 26°08' W 080°04'0 0.1
2015-Apr-11 23:31N 26°08' W 080°04'0 0.0
2015-Apr-11 22:31N 26°08' W 080°04'0 0.0
2015-Apr-11 21:31N 26°08' W 080°04'0 0.0
2015-Apr-11 20:31N 26°08' W 080°04'0 0.0
2015-Apr-11 19:25N 26°08' W 080°04'0 0.0
2015-Apr-11 18:25N 26°08' W 080°04'0 0.0
2015-Apr-11 17:25N 26°08' W 080°04'0 0.0
2015-Apr-11 16:25N 26°08' W 080°04'0 0.0
2015-Apr-11 15:25N 26°08' W 080°04'0 0.0
2015-Apr-11 14:28N 26°08' W 080°04'0 0.0
2015-Apr-11 13:28N 26°08' W 080°04'0 0.0
2015-Apr-11 12:31N 26°08' W 080°04'0 0.0
2015-Apr-11 11:31N 26°08' W 080°04'0 0.0
2015-Apr-11 10:31N 26°08' W 080°04'0 0.0
2015-Apr-11 09:31N 26°08' W 080°04'0 0.0
2015-Apr-11 08:31N 26°08' W 080°04'0 0.0
2015-Apr-11 07:31N 26°08' W 080°04'0 0.0
2015-Apr-11 06:31N 26°08' W 080°04'0 0.0
2015-Apr-11 05:22N 26°08' W 080°04'0 0.0
2015-Apr-11 04:22N 26°08' W 080°04'0 0.0
2015-Apr-11 03:22N 26°08' W 080°04'0 0.0
2015-Apr-11 02:25N 26°08' W 080°04'0 0.0
2015-Apr-11 01:25N 26°08' W 080°04'0 0.0
2015-Apr-11 00:28N 26°08' W 080°04'0 0.0
2015-Apr-10 23:33N 26°08' W 080°04'0 0.0
2015-Apr-10 22:33N 26°08' W 080°04'0 0.0
2015-Apr-10 21:33N 26°08' W 080°04'1 1.0
2015-Apr-10 20:33N 26°08' W 080°03'8 7.6
2015-Apr-10 19:33N 26°12' W 079°56'9 9.1
2015-Apr-10 18:33N 26°19' W 079°50'9 9.0
2015-Apr-10 17:33N 26°27' W 079°45'10 9.5
2015-Apr-10 16:33N 26°36' W 079°40'  

Dump ship's entire track history